Loch Glascanoch, United Kingdom
Current Conditions -  °F | °C
As of 10:20 AM on Monday 26 Jan 2015 (Local Time) from EGPE Reporting Station
Rain Showers Rain Showers  
Wind Chill: 27°   Ceiling: Unl
Heat Index: 37°   Visibility: 6mi
Dew Point: 34°   Wind: 18mph
Humidity: 87%   Direction: 280°W
Pressure: 29.97"   Gusts: NA
Location:  57.72°N, 4.88°W
Report Text: EGPE 261020Z 28016KT 9999 6000S VCSH SCT010 SCT024CB 03/01 Q1015
Loading
Personal Weather Stations






























Interactive Weather Map New forecast layout! Learn more

10-Day Weather Forecast

Advertisements
Track Severe Weather on mobile